createdAt,value
2023-01-04T00:01:18.421Z,100.00
2023-01-04T00:06:20.631Z,100.00
2023-01-04T00:11:23.845Z,100.00
2023-01-04T00:16:28.277Z,100.00
2023-01-04T00:21:30.675Z,100.00
2023-01-04T00:26:33.737Z,100.00
2023-01-04T00:31:35.949Z,100.00
2023-01-04T00:36:37.662Z,100.00
2023-01-04T00:42:00.971Z,100.00
2023-01-04T00:47:04.223Z,100.00
2023-01-04T00:52:06.805Z,100.00
2023-01-04T00:57:09.109Z,100.00
2023-01-04T01:02:10.942Z,100.00
2023-01-04T01:07:12.696Z,100.00
2023-01-04T01:12:14.363Z,100.00
2023-01-04T01:17:16.554Z,100.00
2023-01-04T01:22:18.289Z,100.00
2023-01-04T01:27:19.937Z,100.00
2023-01-04T01:32:21.592Z,100.00
2023-01-04T01:37:23.247Z,100.00
2023-01-04T01:42:24.968Z,100.00
2023-01-04T01:47:39.730Z,100.00
2023-01-04T01:52:41.647Z,100.00
2023-01-04T01:57:44.347Z,100.00
2023-01-04T02:03:47.223Z,100.00
2023-01-04T02:08:49.164Z,100.00
2023-01-04T02:14:09.824Z,100.00
2023-01-04T02:19:48.470Z,100.00
2023-01-04T02:25:23.774Z,100.00
2023-01-04T02:30:52.992Z,100.00
2023-01-04T02:36:14.417Z,100.00
2023-01-04T02:41:25.044Z,100.00
2023-01-04T02:46:32.281Z,100.00
2023-01-04T02:51:36.836Z,100.00
2023-01-04T02:56:41.336Z,100.00
2023-01-04T03:02:07.664Z,100.00
2023-01-04T03:07:09.308Z,100.00
2023-01-04T03:12:33.013Z,100.00
2023-01-04T03:17:42.802Z,100.00
2023-01-04T03:23:12.368Z,100.00
2023-01-04T03:28:36.448Z,100.00
2023-01-04T03:34:12.267Z,100.00
2023-01-04T03:39:55.235Z,100.00
2023-01-04T03:45:30.333Z,100.00
2023-01-04T03:50:41.358Z,100.00
2023-01-04T03:55:44.955Z,100.00
2023-01-04T04:00:47.674Z,100.00
2023-01-04T04:06:08.070Z,100.00
2023-01-04T04:11:28.289Z,100.00
2023-01-04T04:16:30.072Z,100.00
2023-01-04T04:21:31.788Z,100.00
2023-01-04T04:26:33.707Z,100.00
2023-01-04T04:31:35.438Z,100.00
2023-01-04T04:36:37.271Z,100.00
2023-01-04T04:41:39.822Z,100.00
2023-01-04T04:46:42.215Z,100.00
2023-01-04T04:51:45.129Z,100.00
2023-01-04T04:56:48.281Z,100.00
2023-01-04T05:01:50.192Z,100.00
2023-01-04T05:06:53.070Z,100.00
2023-01-04T05:12:13.412Z,100.00
2023-01-04T05:17:15.092Z,100.00
2023-01-04T05:22:16.742Z,100.00
2023-01-04T05:27:18.464Z,100.00
2023-01-04T05:32:20.146Z,100.00
2023-01-04T05:37:21.859Z,100.00
2023-01-04T05:42:26.405Z,100.00
2023-01-04T05:47:28.884Z,100.00
2023-01-04T05:52:30.594Z,100.00
2023-01-04T05:57:32.247Z,100.00
2023-01-04T06:02:34.209Z,100.00
2023-01-04T06:07:36.277Z,100.00
2023-01-04T06:12:38.497Z,100.00
2023-01-04T06:17:40.440Z,100.00
2023-01-04T06:22:43.139Z,100.00
2023-01-04T06:27:44.803Z,100.00
2023-01-04T06:32:46.528Z,100.00
2023-01-04T06:37:48.262Z,100.00
2023-01-04T06:42:49.991Z,100.00
2023-01-04T06:47:51.680Z,100.00
2023-01-04T06:52:53.406Z,100.00
2023-01-04T06:57:59.532Z,100.00
2023-01-04T07:03:14.990Z,100.00
2023-01-04T07:08:17.868Z,100.00
2023-01-04T07:13:19.531Z,100.00
2023-01-04T07:18:21.471Z,100.00
2023-01-04T07:23:23.105Z,100.00
2023-01-04T07:28:43.298Z,100.00
2023-01-04T07:33:45.024Z,100.00
2023-01-04T07:38:46.742Z,100.00
2023-01-04T07:43:48.407Z,100.00
2023-01-04T07:48:50.047Z,100.00
2023-01-04T07:53:51.711Z,100.00
2023-01-04T07:58:57.217Z,100.00
2023-01-04T08:03:59.018Z,100.00
2023-01-04T08:09:01.218Z,100.00
2023-01-04T08:14:03.421Z,100.00
2023-01-04T08:19:13.607Z,100.00
2023-01-04T08:24:17.892Z,100.00
2023-01-04T08:29:19.621Z,100.00
2023-01-04T08:34:21.317Z,100.00
2023-01-04T08:39:22.993Z,100.00
2023-01-04T08:44:25.983Z,100.00
2023-01-04T08:49:28.088Z,100.00
2023-01-04T08:54:29.757Z,100.00
2023-01-04T08:59:31.714Z,100.00
2023-01-04T09:04:33.694Z,100.00
2023-01-04T09:09:35.410Z,100.00
2023-01-04T09:14:37.172Z,100.00
2023-01-04T09:19:38.966Z,100.00
2023-01-04T09:24:40.687Z,100.00
2023-01-04T09:29:42.371Z,100.00
2023-01-04T09:34:45.023Z,100.00
2023-01-04T09:39:47.686Z,100.00
2023-01-04T09:50:32.254Z,100.00
2023-01-04T09:55:41.449Z,100.00
2023-01-04T10:00:52.038Z,100.00
2023-01-04T10:05:56.116Z,100.00
2023-01-04T10:11:09.981Z,100.00
2023-01-04T10:17:01.833Z,100.00
2023-01-04T10:21:55.356Z,100.00
2023-01-04T10:27:18.270Z,100.00
2023-01-04T10:32:29.612Z,100.00
2023-01-04T10:37:35.682Z,100.00
2023-01-04T10:42:47.052Z,100.00
2023-01-04T10:48:10.737Z,100.00
2023-01-04T10:53:26.191Z,100.00
2023-01-04T10:58:43.557Z,100.00
2023-01-04T11:04:02.242Z,100.00
2023-01-04T11:09:12.456Z,100.00
2023-01-04T11:14:15.595Z,100.00
2023-01-04T11:19:17.362Z,100.00
2023-01-04T11:24:34.693Z,100.00
2023-01-04T11:29:46.406Z,100.00
2023-01-04T11:34:57.692Z,100.00
2023-01-04T11:40:17.634Z,100.00
2023-01-04T11:45:25.792Z,100.00
2023-01-04T11:50:42.954Z,100.00
2023-01-04T11:55:44.789Z,100.00
2023-01-04T12:00:56.009Z,100.00
2023-01-04T12:05:58.404Z,100.00
2023-01-04T12:11:02.929Z,100.00
2023-01-04T12:16:23.048Z,100.00
2023-01-04T12:21:26.878Z,100.00
2023-01-04T12:26:28.606Z,100.00
2023-01-04T12:31:32.927Z,93.43
2023-01-04T12:36:38.433Z,90.92
2023-01-04T12:41:40.064Z,83.21
2023-01-04T12:47:00.863Z,81.49
2023-01-04T12:57:38.215Z,80.18
2023-01-04T13:02:50.756Z,80.93
2023-01-04T13:07:57.135Z,81.74
2023-01-04T13:13:21.083Z,78.40
2023-01-04T13:18:28.782Z,80.26
2023-01-04T13:23:30.857Z,79.07
2023-01-04T13:28:32.573Z,79.88
2023-01-04T13:33:34.604Z,80.92
2023-01-04T13:38:39.673Z,79.57
2023-01-04T13:43:57.627Z,81.77
2023-01-04T13:49:02.682Z,80.38
2023-01-04T13:54:07.578Z,81.65
2023-01-04T13:59:09.832Z,80.95
2023-01-04T14:04:25.481Z,80.81
2023-01-04T14:09:35.679Z,80.74
2023-01-04T14:15:01.904Z,80.92
2023-01-04T14:20:15.608Z,81.29
2023-01-04T14:25:42.047Z,80.52
2023-01-04T14:30:43.983Z,81.84
2023-01-04T14:35:48.888Z,83.04
2023-01-04T14:40:51.896Z,81.66
2023-01-04T14:45:53.710Z,86.14
2023-01-04T14:50:55.968Z,84.99
2023-01-04T14:55:57.836Z,87.29
2023-01-04T15:00:59.605Z,86.55
2023-01-04T15:06:01.296Z,87.75
2023-01-04T15:11:03.036Z,87.17
2023-01-04T15:16:05.481Z,88.47
2023-01-04T15:21:07.555Z,87.97
2023-01-04T15:26:11.478Z,88.31
2023-01-04T15:31:14.374Z,90.01
2023-01-04T15:36:23.700Z,90.19
2023-01-04T15:41:43.833Z,92.30
2023-01-04T15:46:45.671Z,92.38
2023-01-04T15:51:47.415Z,92.75
2023-01-04T15:56:49.063Z,92.49
2023-01-04T16:01:50.930Z,94.09
2023-01-04T16:06:53.499Z,94.79
2023-01-04T16:12:13.746Z,95.46
2023-01-04T16:17:15.437Z,96.69
2023-01-04T16:22:17.136Z,97.25
2023-01-04T16:27:19.087Z,96.25
2023-01-04T16:32:20.841Z,96.39
2023-01-04T16:37:26.577Z,98.04
2023-01-04T16:42:28.343Z,98.09
2023-01-04T16:47:37.487Z,98.63
2023-01-04T16:52:40.162Z,99.08
2023-01-04T16:57:41.788Z,99.41
2023-01-04T17:02:43.658Z,99.16
2023-01-04T17:07:45.456Z,99.30
2023-01-04T17:12:48.538Z,99.17
2023-01-04T17:17:50.882Z,99.51
2023-01-04T17:22:52.632Z,100.00
2023-01-04T17:27:54.253Z,99.90
2023-01-04T17:32:55.903Z,100.00
2023-01-04T17:37:57.865Z,100.00
2023-01-04T17:43:00.052Z,100.00
2023-01-04T17:48:01.959Z,100.00
2023-01-04T17:53:03.742Z,100.00
2023-01-04T17:58:09.751Z,100.00
2023-01-04T18:03:14.867Z,100.00
2023-01-04T18:08:16.803Z,100.00
2023-01-04T18:13:18.647Z,100.00
2023-01-04T18:18:20.433Z,100.00
2023-01-04T18:23:25.672Z,100.00
2023-01-04T18:28:28.679Z,100.00
2023-01-04T18:33:31.197Z,100.00
2023-01-04T18:38:33.936Z,100.00
2023-01-04T18:43:37.423Z,100.00
2023-01-04T18:48:40.048Z,100.00
2023-01-04T18:53:42.279Z,100.00
2023-01-04T18:58:44.654Z,100.00
2023-01-04T19:03:48.903Z,100.00
2023-01-04T19:08:57.181Z,100.00
2023-01-04T19:14:01.873Z,100.00
2023-01-04T19:19:04.360Z,100.00
2023-01-04T19:24:06.853Z,100.00
2023-01-04T19:29:09.292Z,100.00
2023-01-04T19:34:11.842Z,100.00
2023-01-04T19:39:14.287Z,100.00
2023-01-04T19:44:17.173Z,100.00
2023-01-04T19:49:19.449Z,100.00
2023-01-04T19:54:25.559Z,100.00
2023-01-04T19:59:29.927Z,100.00
2023-01-04T20:04:32.180Z,100.00
2023-01-04T20:09:34.996Z,100.00
2023-01-04T20:14:39.455Z,100.00
2023-01-04T20:19:41.516Z,100.00
2023-01-04T20:24:43.994Z,100.00
2023-01-04T20:29:46.665Z,100.00
2023-01-04T20:34:49.224Z,100.00
2023-01-04T20:39:51.935Z,100.00
2023-01-04T20:44:54.002Z,100.00
2023-01-04T20:49:57.801Z,100.00
2023-01-04T20:55:00.208Z,100.00
2023-01-04T21:00:02.466Z,100.00
2023-01-04T21:05:04.895Z,100.00
2023-01-04T21:10:08.552Z,100.00
2023-01-04T21:15:10.975Z,100.00
2023-01-04T21:20:14.251Z,100.00
2023-01-04T21:25:16.013Z,100.00
2023-01-04T21:30:17.901Z,100.00
2023-01-04T21:35:19.643Z,100.00
2023-01-04T21:40:21.986Z,100.00
2023-01-04T21:45:24.560Z,100.00
2023-01-04T21:50:30.727Z,100.00
2023-01-04T21:55:34.851Z,100.00
2023-01-04T22:00:36.910Z,100.00
2023-01-04T22:05:38.589Z,100.00
2023-01-04T22:10:40.311Z,100.00
2023-01-04T22:15:42.093Z,100.00
2023-01-04T22:20:44.653Z,100.00
2023-01-04T22:25:46.294Z,100.00
2023-01-04T22:30:47.983Z,100.00
2023-01-04T22:35:49.788Z,100.00
2023-01-04T22:40:51.476Z,100.00
2023-01-04T22:46:00.514Z,100.00
2023-01-04T22:51:10.864Z,99.84
2023-01-04T22:56:19.310Z,100.00
2023-01-04T23:01:28.273Z,100.00
2023-01-04T23:06:32.219Z,100.00
2023-01-04T23:11:35.824Z,100.00
2023-01-04T23:16:37.538Z,99.49
2023-01-04T23:21:39.979Z,100.00
2023-01-04T23:26:42.357Z,100.00
2023-01-04T23:31:44.116Z,100.00
2023-01-04T23:36:45.929Z,100.00
2023-01-04T23:41:48.086Z,99.91
2023-01-04T23:46:56.410Z,99.97
2023-01-04T23:51:58.706Z,99.80
2023-01-04T23:57:00.865Z,99.96
